sensor_id;sensor_type;location;lat;lon;timestamp;pressure;altitude;pressure_sealevel;temperature;humidity
74637;BME280;63141;54.616;39.754;2022-10-16T00:01:13;101493.41;;;25.63;34.61
74637;BME280;63141;54.616;39.754;2022-10-16T00:04:14;101496.94;;;25.64;34.72
74637;BME280;63141;54.616;39.754;2022-10-16T00:07:15;101494.25;;;25.64;34.67
74637;BME280;63141;54.616;39.754;2022-10-16T00:10:17;101492.50;;;25.63;34.20
74637;BME280;63141;54.616;39.754;2022-10-16T00:13:18;101496.94;;;25.64;34.27
74637;BME280;63141;54.616;39.754;2022-10-16T00:16:21;101499.59;;;25.64;34.43
74637;BME280;63141;54.616;39.754;2022-10-16T00:19:22;101499.59;;;25.64;34.36
74637;BME280;63141;54.616;39.754;2022-10-16T00:22:24;101499.59;;;25.64;34.42
74637;BME280;63141;54.616;39.754;2022-10-16T00:25:25;101499.59;;;25.64;34.46
74637;BME280;63141;54.616;39.754;2022-10-16T00:28:27;101504.94;;;25.64;34.49
74637;BME280;63141;54.616;39.754;2022-10-16T00:31:28;101495.16;;;25.63;34.63
74637;BME280;63141;54.616;39.754;2022-10-16T00:34:30;101500.47;;;25.64;34.71
74637;BME280;63141;54.616;39.754;2022-10-16T00:37:32;101500.50;;;25.63;34.58
74637;BME280;63141;54.616;39.754;2022-10-16T00:40:33;101503.16;;;25.63;34.61
74637;BME280;63141;54.616;39.754;2022-10-16T00:46:41;101497.84;;;25.63;34.65
74637;BME280;63141;54.616;39.754;2022-10-16T00:49:43;101505.84;;;25.63;34.80
74637;BME280;63141;54.616;39.754;2022-10-16T00:52:47;101506.72;;;25.63;34.48
74637;BME280;63141;54.616;39.754;2022-10-16T00:55:49;101507.63;;;25.62;34.60
74637;BME280;63141;54.616;39.754;2022-10-16T00:58:50;101511.16;;;25.63;34.95
74637;BME280;63141;54.616;39.754;2022-10-16T01:01:53;101512.97;;;25.62;34.79
74637;BME280;63141;54.616;39.754;2022-10-16T01:04:55;101516.50;;;25.63;35.03
74637;BME280;63141;54.616;39.754;2022-10-16T01:08:12;101524.50;;;25.63;34.85
74637;BME280;63141;54.616;39.754;2022-10-16T01:11:30;101524.50;;;25.63;34.85
74637;BME280;63141;54.616;39.754;2022-10-16T01:14:44;101529.84;;;25.63;34.78
74637;BME280;63141;54.616;39.754;2022-10-16T01:20:56;101538.78;;;25.62;34.88
74637;BME280;63141;54.616;39.754;2022-10-16T01:27:27;101541.47;;;25.62;34.96
74637;BME280;63141;54.616;39.754;2022-10-16T01:30:32;101543.19;;;25.63;35.17
74637;BME280;63141;54.616;39.754;2022-10-16T01:33:39;101552.13;;;25.62;34.79
74637;BME280;63141;54.616;39.754;2022-10-16T01:36:48;101544.13;;;25.62;34.94
74637;BME280;63141;54.616;39.754;2022-10-16T01:39:55;101548.53;;;25.63;34.99
74637;BME280;63141;54.616;39.754;2022-10-16T01:43:04;101546.78;;;25.62;34.93
74637;BME280;63141;54.616;39.754;2022-10-16T01:46:06;101549.47;;;25.62;35.12
74637;BME280;63141;54.616;39.754;2022-10-16T01:49:10;101554.78;;;25.62;35.05
74637;BME280;63141;54.616;39.754;2022-10-16T01:52:17;101555.66;;;25.62;35.06
74637;BME280;63141;54.616;39.754;2022-10-16T01:55:24;101546.84;;;25.60;34.80
74637;BME280;63141;54.616;39.754;2022-10-16T01:58:28;101553.03;;;25.61;34.87
74637;BME280;63141;54.616;39.754;2022-10-16T02:01:37;101549.47;;;25.62;35.11
74637;BME280;63141;54.616;39.754;2022-10-16T02:04:49;101552.13;;;25.62;35.18
74637;BME280;63141;54.616;39.754;2022-10-16T02:07:52;101552.13;;;25.62;35.21
74637;BME280;63141;54.616;39.754;2022-10-16T02:10:58;101558.38;;;25.61;35.06
74637;BME280;63141;54.616;39.754;2022-10-16T02:14:05;101558.38;;;25.61;34.95
74637;BME280;63141;54.616;39.754;2022-10-16T02:17:16;101559.28;;;25.61;35.15
74637;BME280;63141;54.616;39.754;2022-10-16T02:20:21;101564.59;;;25.61;34.96
74637;BME280;63141;54.616;39.754;2022-10-16T02:23:33;101570.81;;;25.62;35.32
74637;BME280;63141;54.616;39.754;2022-10-16T02:27:06;101565.47;;;25.62;35.05
74637;BME280;63141;54.616;39.754;2022-10-16T02:30:25;101562.84;;;25.60;35.31
74637;BME280;63141;54.616;39.754;2022-10-16T02:33:29;101574.38;;;25.61;35.04
74637;BME280;63141;54.616;39.754;2022-10-16T02:36:32;101576.19;;;25.60;34.85
74637;BME280;63141;54.616;39.754;2022-10-16T02:39:36;101573.50;;;25.60;35.26
74637;BME280;63141;54.616;39.754;2022-10-16T02:42:40;101577.97;;;25.60;35.13
74637;BME280;63141;54.616;39.754;2022-10-16T02:45:42;101583.31;;;25.60;35.40
74637;BME280;63141;54.616;39.754;2022-10-16T02:48:43;101577.97;;;25.60;35.42
74637;BME280;63141;54.616;39.754;2022-10-16T02:51:44;101581.53;;;25.60;35.45
74637;BME280;63141;54.616;39.754;2022-10-16T02:54:45;101581.47;;;25.62;35.33
74637;BME280;63141;54.616;39.754;2022-10-16T02:57:47;101577.97;;;25.60;35.24
74637;BME280;63141;54.616;39.754;2022-10-16T03:00:48;101590.38;;;25.61;35.43
74637;BME280;63141;54.616;39.754;2022-10-16T03:03:50;101578.84;;;25.60;35.27
74637;BME280;63141;54.616;39.754;2022-10-16T03:06:51;101579.72;;;25.61;35.47
74637;BME280;63141;54.616;39.754;2022-10-16T03:09:52;101585.94;;;25.61;35.64
74637;BME280;63141;54.616;39.754;2022-10-16T03:12:55;101587.72;;;25.61;35.57
74637;BME280;63141;54.616;39.754;2022-10-16T03:15:56;101591.28;;;25.61;35.41
74637;BME280;63141;54.616;39.754;2022-10-16T03:18:58;101594.81;;;25.62;35.63
74637;BME280;63141;54.616;39.754;2022-10-16T03:21:59;101608.16;;;25.62;35.27
74637;BME280;63141;54.616;39.754;2022-10-16T03:25:00;101596.63;;;25.61;35.35
74637;BME280;63141;54.616;39.754;2022-10-16T03:28:02;101605.50;;;25.62;35.63
74637;BME280;63141;54.616;39.754;2022-10-16T03:31:04;101604.63;;;25.61;35.20
74637;BME280;63141;54.616;39.754;2022-10-16T03:34:05;101613.50;;;25.62;35.21
74637;BME280;63141;54.616;39.754;2022-10-16T03:37:07;101621.50;;;25.62;35.54
74637;BME280;63141;54.616;39.754;2022-10-16T03:40:08;101617.06;;;25.61;35.66
74637;BME280;63141;54.616;39.754;2022-10-16T03:43:10;101625.06;;;25.61;35.74
74637;BME280;63141;54.616;39.754;2022-10-16T03:46:11;101620.63;;;25.61;35.65
74637;BME280;63141;54.616;39.754;2022-10-16T03:49:12;101627.75;;;25.61;35.25
74637;BME280;63141;54.616;39.754;2022-10-16T03:52:14;101633.97;;;25.61;35.44
74637;BME280;63141;54.616;39.754;2022-10-16T03:55:15;101634.84;;;25.62;35.40
74637;BME280;63141;54.616;39.754;2022-10-16T03:58:16;101637.50;;;25.62;35.31
74637;BME280;63141;54.616;39.754;2022-10-16T04:01:18;101639.31;;;25.61;35.70
74637;BME280;63141;54.616;39.754;2022-10-16T04:04:19;101645.50;;;25.62;35.46
74637;BME280;63141;54.616;39.754;2022-10-16T04:07:20;101637.50;;;25.62;35.31
74637;BME280;63141;54.616;39.754;2022-10-16T04:10:22;101643.75;;;25.61;35.57
74637;BME280;63141;54.616;39.754;2022-10-16T04:13:23;101650.84;;;25.62;35.53
74637;BME280;63141;54.616;39.754;2022-10-16T04:16:24;101648.22;;;25.60;35.74
74637;BME280;63141;54.616;39.754;2022-10-16T04:19:26;101654.41;;;25.61;35.24
74637;BME280;63141;54.616;39.754;2022-10-16T04:22:27;101647.34;;;25.60;35.84
74637;BME280;63141;54.616;39.754;2022-10-16T04:25:29;101652.69;;;25.60;35.78
74637;BME280;63141;54.616;39.754;2022-10-16T04:28:30;101662.50;;;25.59;35.83
74637;BME280;63141;54.616;39.754;2022-10-16T04:31:31;101661.63;;;25.59;35.85
74637;BME280;63141;54.616;39.754;2022-10-16T04:34:32;101656.28;;;25.59;35.78
74637;BME280;63141;54.616;39.754;2022-10-16T04:37:34;101663.47;;;25.57;35.78
74637;BME280;63141;54.616;39.754;2022-10-16T04:40:35;101680.38;;;25.56;35.46
74637;BME280;63141;54.616;39.754;2022-10-16T04:43:39;101672.75;;;25.43;34.03
74637;BME280;63141;54.616;39.754;2022-10-16T04:46:41;101669.63;;;25.29;33.30
74637;BME280;63141;54.616;39.754;2022-10-16T04:49:42;101678.88;;;25.16;32.91
74637;BME280;63141;54.616;39.754;2022-10-16T04:52:43;101681.84;;;25.03;32.65
74637;BME280;63141;54.616;39.754;2022-10-16T04:55:45;101682.94;;;24.96;32.14
74637;BME280;63141;54.616;39.754;2022-10-16T04:58:47;101682.94;;;24.96;31.96
74637;BME280;63141;54.616;39.754;2022-10-16T05:01:48;101683.03;;;24.93;31.91
74637;BME280;63141;54.616;39.754;2022-10-16T05:04:50;101675.06;;;24.92;31.56
74637;BME280;63141;54.616;39.754;2022-10-16T05:07:52;101686.66;;;24.91;31.17
74637;BME280;63141;54.616;39.754;2022-10-16T05:10:53;101689.28;;;24.92;31.04
74637;BME280;63141;54.616;39.754;2022-10-16T05:13:55;101694.72;;;24.87;31.05
74637;BME280;63141;54.616;39.754;2022-10-16T05:16:57;101692.13;;;24.86;30.94
74637;BME280;63141;54.616;39.754;2022-10-16T05:19:58;101695.69;;;24.85;30.88
74637;BME280;63141;54.616;39.754;2022-10-16T05:22:59;101699.28;;;24.84;30.67
74637;BME280;63141;54.616;39.754;2022-10-16T05:26:00;101697.50;;;24.83;30.41
74637;BME280;63141;54.616;39.754;2022-10-16T05:29:02;101706.34;;;24.85;30.88
74637;BME280;63141;54.616;39.754;2022-10-16T05:32:04;101700.25;;;24.81;30.73
74637;BME280;63141;54.616;39.754;2022-10-16T05:35:05;101704.72;;;24.81;31.29
74637;BME280;63141;54.616;39.754;2022-10-16T05:38:07;101712.81;;;24.76;31.30
74637;BME280;63141;54.616;39.754;2022-10-16T05:41:08;101704.84;;;24.75;31.11
74637;BME280;63141;54.616;39.754;2022-10-16T05:44:10;101708.38;;;24.77;30.81
74637;BME280;63141;54.616;39.754;2022-10-16T05:47:12;101706.59;;;24.76;31.24
74637;BME280;63141;54.616;39.754;2022-10-16T05:50:15;101705.72;;;24.75;31.38
74637;BME280;63141;54.616;39.754;2022-10-16T05:53:16;101713.69;;;24.77;31.19
74637;BME280;63141;54.616;39.754;2022-10-16T05:56:18;101711.06;;;24.75;30.96
74637;BME280;63141;54.616;39.754;2022-10-16T05:59:19;101711.19;;;24.69;31.01
74637;BME280;63141;54.616;39.754;2022-10-16T06:02:20;101719.19;;;24.69;31.29
74637;BME280;63141;54.616;39.754;2022-10-16T06:05:21;101715.66;;;24.69;31.45
74637;BME280;63141;54.616;39.754;2022-10-16T06:08:23;101722.75;;;24.70;31.28
74637;BME280;63141;54.616;39.754;2022-10-16T06:11:27;101725.47;;;24.68;31.30
74637;BME280;63141;54.616;39.754;2022-10-16T06:14:29;101720.13;;;24.68;31.67
74637;BME280;63141;54.616;39.754;2022-10-16T06:17:30;101726.31;;;24.69;31.49
74637;BME280;63141;54.616;39.754;2022-10-16T06:20:32;101722.81;;;24.66;31.48
74637;BME280;63141;54.616;39.754;2022-10-16T06:23:33;101719.31;;;24.64;31.43
74637;BME280;63141;54.616;39.754;2022-10-16T06:26:34;101725.56;;;24.63;30.71
74637;BME280;63141;54.616;39.754;2022-10-16T06:29:36;101726.66;;;24.56;30.60
74637;BME280;63141;54.616;39.754;2022-10-16T06:32:37;101722.38;;;24.49;30.06
74637;BME280;63141;54.616;39.754;2022-10-16T06:35:38;101731.22;;;24.51;30.24
74637;BME280;63141;54.616;39.754;2022-10-16T06:38:40;101734.78;;;24.50;30.03
74637;BME280;63141;54.616;39.754;2022-10-16T06:41:42;101732.22;;;24.47;29.70
74637;BME280;63141;54.616;39.754;2022-10-16T06:44:50;101732.41;;;24.38;29.16
74637;BME280;63141;54.616;39.754;2022-10-16T06:47:51;101737.88;;;24.32;29.22
74637;BME280;63141;54.616;39.754;2022-10-16T06:51:00;101736.25;;;24.26;28.57
74637;BME280;63141;54.616;39.754;2022-10-16T06:54:01;101742.47;;;24.25;28.63
74637;BME280;63141;54.616;39.754;2022-10-16T06:57:03;101746.09;;;24.21;28.50
74637;BME280;63141;54.616;39.754;2022-10-16T07:00:05;101740.78;;;24.21;28.67
74637;BME280;63141;54.616;39.754;2022-10-16T07:03:06;101746.88;;;24.26;28.88
74637;BME280;63141;54.616;39.754;2022-10-16T07:06:10;101749.38;;;24.32;28.30
74637;BME280;63141;54.616;39.754;2022-10-16T07:09:11;101756.38;;;24.38;28.65
74637;BME280;63141;54.616;39.754;2022-10-16T07:12:13;101750.06;;;24.42;27.87
74637;BME280;63141;54.616;39.754;2022-10-16T07:15:14;101752.63;;;24.46;28.04
74637;BME280;63141;54.616;39.754;2022-10-16T07:18:15;101754.28;;;24.51;27.96
74637;BME280;63141;54.616;39.754;2022-10-16T07:21:20;101754.25;;;24.54;27.77
74637;BME280;63141;54.616;39.754;2022-10-16T07:24:22;101756.84;;;24.55;27.80
74637;BME280;63141;54.616;39.754;2022-10-16T07:27:23;101761.22;;;24.58;27.43
74637;BME280;63141;54.616;39.754;2022-10-16T07:30:25;101759.41;;;24.60;27.27
74637;BME280;63141;54.616;39.754;2022-10-16T07:33:26;101756.69;;;24.61;27.31
74637;BME280;63141;54.616;39.754;2022-10-16T07:36:28;101758.41;;;24.64;27.33
74637;BME280;63141;54.616;39.754;2022-10-16T07:39:29;101759.22;;;24.67;27.25
74637;BME280;63141;54.616;39.754;2022-10-16T07:42:30;101758.28;;;24.69;27.18
74637;BME280;63141;54.616;39.754;2022-10-16T07:45:32;101759.16;;;24.69;27.07
74637;BME280;63141;54.616;39.754;2022-10-16T07:48:34;101756.47;;;24.71;26.80
74637;BME280;63141;54.616;39.754;2022-10-16T07:51:36;101759.97;;;24.73;27.01
74637;BME280;63141;54.616;39.754;2022-10-16T07:54:39;101762.59;;;24.74;26.87
74637;BME280;63141;54.616;39.754;2022-10-16T07:57:40;101763.47;;;24.75;26.37
74637;BME280;63141;54.616;39.754;2022-10-16T08:00:41;101760.81;;;24.75;27.08
74637;BME280;63141;54.616;39.754;2022-10-16T08:03:44;101752.06;;;24.70;27.15
74637;BME280;63141;54.616;39.754;2022-10-16T08:06:46;101763.63;;;24.69;26.93
74637;BME280;63141;54.616;39.754;2022-10-16T08:09:49;101761.88;;;24.67;26.59
74637;BME280;63141;54.616;39.754;2022-10-16T08:12:52;101757.44;;;24.66;26.73
74637;BME280;63141;54.616;39.754;2022-10-16T08:15:55;101747.63;;;24.69;27.25
74637;BME280;63141;54.616;39.754;2022-10-16T08:18:56;101756.56;;;24.67;27.52
74637;BME280;63141;54.616;39.754;2022-10-16T08:21:58;101752.09;;;24.68;27.42
74637;BME280;63141;54.616;39.754;2022-10-16T08:24:59;101756.56;;;24.67;28.07
74637;BME280;63141;54.616;39.754;2022-10-16T08:28:03;101755.81;;;24.62;28.19
74637;BME280;63141;54.616;39.754;2022-10-16T08:31:10;101755.84;;;24.61;28.68
74637;BME280;63141;54.616;39.754;2022-10-16T08:34:11;101755.84;;;24.61;28.77
74637;BME280;63141;54.616;39.754;2022-10-16T08:37:12;101753.16;;;24.62;28.62
74637;BME280;63141;54.616;39.754;2022-10-16T08:40:24;101756.63;;;24.64;29.20
74637;BME280;63141;54.616;39.754;2022-10-16T08:50:25;101748.16;;;24.83;28.90
74637;BME280;63141;54.616;39.754;2022-10-16T08:53:40;101755.13;;;24.88;29.12
74637;BME280;63141;54.616;39.754;2022-10-16T08:56:44;101746.16;;;24.91;29.33
74637;BME280;63141;54.616;39.754;2022-10-16T08:59:45;101748.75;;;24.94;29.22
74637;BME280;63141;54.616;39.754;2022-10-16T09:06:10;101745.94;;;25.00;29.71
74637;BME280;63141;54.616;39.754;2022-10-16T09:09:37;101755.63;;;25.03;29.39
74637;BME280;63141;54.616;39.754;2022-10-16T09:12:56;101750.25;;;25.04;29.51
74637;BME280;63141;54.616;39.754;2022-10-16T09:16:27;101753.75;;;25.06;29.66
74637;BME280;63141;54.616;39.754;2022-10-16T09:19:35;101758.13;;;25.09;29.87
74637;BME280;63141;54.616;39.754;2022-10-16T09:22:39;101756.34;;;25.09;30.21
74637;BME280;63141;54.616;39.754;2022-10-16T09:25:48;101755.44;;;25.11;30.08
74637;BME280;63141;54.616;39.754;2022-10-16T09:28:52;101755.44;;;25.11;30.04
74637;BME280;63141;54.616;39.754;2022-10-16T09:31:54;101751.84;;;25.12;29.98
74637;BME280;63141;54.616;39.754;2022-10-16T09:34:58;101755.38;;;25.12;29.93
74637;BME280;63141;54.616;39.754;2022-10-16T09:38:00;101747.38;;;25.12;30.14
74637;BME280;63141;54.616;39.754;2022-10-16T09:41:21;101755.34;;;25.14;30.19
74637;BME280;63141;54.616;39.754;2022-10-16T09:44:29;101752.66;;;25.15;29.84
74637;BME280;63141;54.616;39.754;2022-10-16T09:47:31;101751.75;;;25.15;30.06
74637;BME280;63141;54.616;39.754;2022-10-16T09:50:38;101748.22;;;25.14;29.82
74637;BME280;63141;54.616;39.754;2022-10-16T09:53:45;101746.41;;;25.15;29.79
74637;BME280;63141;54.616;39.754;2022-10-16T09:56:47;101750.00;;;25.14;29.99
74637;BME280;63141;54.616;39.754;2022-10-16T09:59:57;101748.19;;;25.16;29.85
74637;BME280;63141;54.616;39.754;2022-10-16T10:02:58;101746.41;;;25.15;30.28
74637;BME280;63141;54.616;39.754;2022-10-16T10:06:27;101742.84;;;25.16;29.88
74637;BME280;63141;54.616;39.754;2022-10-16T10:09:26;101748.19;;;25.16;29.58
74637;BME280;63141;54.616;39.754;2022-10-16T10:12:30;101742.84;;;25.16;29.36
74637;BME280;63141;54.616;39.754;2022-10-16T10:15:41;101734.00;;;25.14;29.11
74637;BME280;63141;54.616;39.754;2022-10-16T10:18:42;101730.41;;;25.15;29.31
74637;BME280;63141;54.616;39.754;2022-10-16T10:21:44;101732.19;;;25.16;29.10
74637;BME280;63141;54.616;39.754;2022-10-16T10:48:05;101721.53;;;25.16;28.12
74637;BME280;63141;54.616;39.754;2022-10-16T10:54:40;101717.06;;;25.16;28.12
74637;BME280;63141;54.616;39.754;2022-10-16T11:01:08;101723.31;;;25.15;28.38
74637;BME280;63141;54.616;39.754;2022-10-16T11:07:39;101716.19;;;25.16;28.30
74637;BME280;63141;54.616;39.754;2022-10-16T11:10:54;101723.34;;;25.14;27.78
74637;BME280;63141;54.616;39.754;2022-10-16T11:17:37;101718.91;;;25.13;27.54
74637;BME280;63141;54.616;39.754;2022-10-16T11:20:56;101721.59;;;25.13;27.63
74637;BME280;63141;54.616;39.754;2022-10-16T11:24:06;101723.34;;;25.14;27.66
74637;BME280;63141;54.616;39.754;2022-10-16T11:27:23;101727.81;;;25.13;27.15
74637;BME280;63141;54.616;39.754;2022-10-16T11:30:30;101725.19;;;25.12;26.99
74637;BME280;63141;54.616;39.754;2022-10-16T11:33:45;101722.47;;;25.13;27.52
74637;BME280;63141;54.616;39.754;2022-10-16T11:37:10;101718.88;;;25.14;27.20
74637;BME280;63141;54.616;39.754;2022-10-16T11:40:28;101714.41;;;25.15;27.41
74637;BME280;63141;54.616;39.754;2022-10-16T11:43:37;101711.75;;;25.15;27.48
74637;BME280;63141;54.616;39.754;2022-10-16T11:46:46;101725.91;;;25.17;27.73
74637;BME280;63141;54.616;39.754;2022-10-16T11:49:53;101710.78;;;25.19;27.78
74637;BME280;63141;54.616;39.754;2022-10-16T11:56:18;101717.78;;;25.23;28.05
74637;BME280;63141;54.616;39.754;2022-10-16T12:06:37;101714.13;;;25.27;28.57
74637;BME280;63141;54.616;39.754;2022-10-16T12:09:42;101714.13;;;25.27;28.48
74637;BME280;63141;54.616;39.754;2022-10-16T12:12:44;101711.47;;;25.27;29.00
74637;BME280;63141;54.616;39.754;2022-10-16T12:15:47;101705.22;;;25.26;28.91
74637;BME280;63141;54.616;39.754;2022-10-16T12:18:49;101708.78;;;25.27;28.83
74637;BME280;63141;54.616;39.754;2022-10-16T12:21:52;101703.47;;;25.27;29.30
74637;BME280;63141;54.616;39.754;2022-10-16T12:24:55;101712.28;;;25.29;28.91
74637;BME280;63141;54.616;39.754;2022-10-16T12:31:18;101698.88;;;25.32;29.07
74637;BME280;63141;54.616;39.754;2022-10-16T12:34:29;101709.53;;;25.32;29.39
74637;BME280;63141;54.616;39.754;2022-10-16T12:37:35;101706.88;;;25.32;29.02
74637;BME280;63141;54.616;39.754;2022-10-16T12:40:38;101697.94;;;25.33;29.53
74637;BME280;63141;54.616;39.754;2022-10-16T12:43:41;101692.59;;;25.33;29.42
74637;BME280;63141;54.616;39.754;2022-10-16T12:46:45;101695.25;;;25.33;29.24
74637;BME280;63141;54.616;39.754;2022-10-16T12:49:52;101696.09;;;25.35;29.27
74637;BME280;63141;54.616;39.754;2022-10-16T12:52:54;101693.44;;;25.35;29.23
74637;BME280;63141;54.616;39.754;2022-10-16T12:59:53;101691.59;;;25.37;29.33
74637;BME280;63141;54.616;39.754;2022-10-16T13:03:18;101681.84;;;25.36;29.42
74637;BME280;63141;54.616;39.754;2022-10-16T13:09:47;101676.53;;;25.36;29.61
74637;BME280;63141;54.616;39.754;2022-10-16T13:13:13;101672.94;;;25.37;29.57
74637;BME280;63141;54.616;39.754;2022-10-16T13:16:45;101673.78;;;25.38;29.58
74637;BME280;63141;54.616;39.754;2022-10-16T13:23:47;101673.84;;;25.36;29.53
74637;BME280;63141;54.616;39.754;2022-10-16T13:26:59;101678.25;;;25.37;29.80
74637;BME280;63141;54.616;39.754;2022-10-16T13:33:37;101674.69;;;25.38;29.97
74637;BME280;63141;54.616;39.754;2022-10-16T13:36:58;101681.75;;;25.39;30.02
74637;BME280;63141;54.616;39.754;2022-10-16T13:40:19;101678.22;;;25.39;29.85
74637;BME280;63141;54.616;39.754;2022-10-16T13:43:38;101676.44;;;25.39;29.97
74637;BME280;63141;54.616;39.754;2022-10-16T13:46:40;101674.69;;;25.38;29.63
74637;BME280;63141;54.616;39.754;2022-10-16T13:49:42;101675.56;;;25.39;29.98
74637;BME280;63141;54.616;39.754;2022-10-16T13:52:43;101674.69;;;25.38;30.05
74637;BME280;63141;54.616;39.754;2022-10-16T13:55:45;101672.94;;;25.37;30.12
74637;BME280;63141;54.616;39.754;2022-10-16T13:58:46;101677.34;;;25.38;29.74
74637;BME280;63141;54.616;39.754;2022-10-16T14:01:49;101675.56;;;25.39;29.76
74637;BME280;63141;54.616;39.754;2022-10-16T14:04:53;101671.97;;;25.40;30.16
74637;BME280;63141;54.616;39.754;2022-10-16T14:07:56;101676.44;;;25.39;30.06
74637;BME280;63141;54.616;39.754;2022-10-16T14:10:59;101676.44;;;25.39;30.32
74637;BME280;63141;54.616;39.754;2022-10-16T14:14:02;101670.22;;;25.39;30.09
74637;BME280;63141;54.616;39.754;2022-10-16T14:17:03;101670.16;;;25.40;30.44
74637;BME280;63141;54.616;39.754;2022-10-16T14:20:05;101669.25;;;25.41;30.54
74637;BME280;63141;54.616;39.754;2022-10-16T14:23:31;101671.06;;;25.41;30.44
74637;BME280;63141;54.616;39.754;2022-10-16T14:26:41;101673.66;;;25.42;30.68
74637;BME280;63141;54.616;39.754;2022-10-16T14:29:42;101674.59;;;25.41;30.61
74637;BME280;63141;54.616;39.754;2022-10-16T14:36:12;101671.00;;;25.42;30.78
74637;BME280;63141;54.616;39.754;2022-10-16T14:39:22;101665.66;;;25.42;30.54
74637;BME280;63141;54.616;39.754;2022-10-16T14:42:24;101663.81;;;25.44;30.48
74637;BME280;63141;54.616;39.754;2022-10-16T14:45:31;101669.16;;;25.44;30.66
74637;BME280;63141;54.616;39.754;2022-10-16T14:48:33;101661.22;;;25.43;30.79
74637;BME280;63141;54.616;39.754;2022-10-16T14:51:36;101664.72;;;25.45;30.71
74637;BME280;63141;54.616;39.754;2022-10-16T14:54:37;101670.09;;;25.43;30.97
74637;BME280;63141;54.616;39.754;2022-10-16T14:57:39;101683.41;;;25.43;30.87
74637;BME280;63141;54.616;39.754;2022-10-16T15:00:41;101690.69;;;25.38;30.74
74637;BME280;63141;54.616;39.754;2022-10-16T15:03:43;101690.03;;;25.30;30.26
74637;BME280;63141;54.616;39.754;2022-10-16T15:06:45;101692.94;;;25.22;29.84
74637;BME280;63141;54.616;39.754;2022-10-16T15:09:46;101694.84;;;25.16;29.40
74637;BME280;63141;54.616;39.754;2022-10-16T15:12:48;101691.47;;;25.11;29.32
74637;BME280;63141;54.616;39.754;2022-10-16T15:15:49;101688.03;;;25.05;28.73
74637;BME280;63141;54.616;39.754;2022-10-16T15:18:50;101692.47;;;25.05;28.62
74637;BME280;63141;54.616;39.754;2022-10-16T15:21:53;101704.09;;;25.02;28.71
74637;BME280;63141;54.616;39.754;2022-10-16T15:24:55;101689.06;;;25.00;28.96
74637;BME280;63141;54.616;39.754;2022-10-16T15:27:56;101696.34;;;24.95;28.96
74637;BME280;63141;54.616;39.754;2022-10-16T15:30:57;101699.94;;;24.92;30.69
74637;BME280;63141;54.616;39.754;2022-10-16T15:33:59;101693.44;;;25.02;32.12
74637;BME280;63141;54.616;39.754;2022-10-16T15:37:05;101692.25;;;25.13;33.21
74637;BME280;63141;54.616;39.754;2022-10-16T15:40:07;101692.88;;;25.24;33.08
74637;BME280;63141;54.616;39.754;2022-10-16T15:43:09;101692.53;;;25.36;33.25
74637;BME280;63141;54.616;39.754;2022-10-16T15:46:12;101699.31;;;25.46;32.96
74637;BME280;63141;54.616;39.754;2022-10-16T15:49:15;101700.19;;;25.47;33.23
74637;BME280;63141;54.616;39.754;2022-10-16T15:52:16;101712.63;;;25.48;32.63
74637;BME280;63141;54.616;39.754;2022-10-16T15:55:18;101709.94;;;25.49;32.38
74637;BME280;63141;54.616;39.754;2022-10-16T15:58:19;101709.94;;;25.49;32.17
74637;BME280;63141;54.616;39.754;2022-10-16T16:01:21;101706.22;;;25.54;31.74
74637;BME280;63141;54.616;39.754;2022-10-16T16:04:22;101704.31;;;25.59;31.17
74637;BME280;63141;54.616;39.754;2022-10-16T16:07:24;101716.72;;;25.60;30.73
74637;BME280;63141;54.616;39.754;2022-10-16T16:10:25;101722.06;;;25.60;30.21
74637;BME280;63141;54.616;39.754;2022-10-16T16:13:27;101715.00;;;25.59;30.48
74637;BME280;63141;54.616;39.754;2022-10-16T16:16:28;101719.44;;;25.58;29.84
74637;BME280;63141;54.616;39.754;2022-10-16T16:19:29;101724.06;;;25.52;29.78
74637;BME280;63141;54.616;39.754;2022-10-16T16:22:31;101726.94;;;25.45;29.67
74637;BME280;63141;54.616;39.754;2022-10-16T16:25:33;101716.53;;;25.36;29.70
74637;BME280;63141;54.616;39.754;2022-10-16T16:28:34;101715.75;;;25.31;29.15
74637;BME280;63141;54.616;39.754;2022-10-16T16:31:36;101714.13;;;25.27;29.13
74637;BME280;63141;54.616;39.754;2022-10-16T16:34:37;101725.69;;;25.26;29.61
74637;BME280;63141;54.616;39.754;2022-10-16T16:37:38;101717.78;;;25.23;29.53
74637;BME280;63141;54.616;39.754;2022-10-16T16:40:40;101722.25;;;25.22;29.34
74637;BME280;63141;54.616;39.754;2022-10-16T16:43:41;101723.97;;;25.25;29.35
74637;BME280;63141;54.616;39.754;2022-10-16T16:46:44;101722.97;;;25.29;29.21
74637;BME280;63141;54.616;39.754;2022-10-16T16:49:45;101725.53;;;25.32;29.53
74637;BME280;63141;54.616;39.754;2022-10-16T16:52:49;101721.91;;;25.35;29.46
74637;BME280;63141;54.616;39.754;2022-10-16T16:55:51;101719.00;;;25.42;29.56
74637;BME280;63141;54.616;39.754;2022-10-16T16:58:54;101725.84;;;25.53;29.87
74637;BME280;63141;54.616;39.754;2022-10-16T17:01:56;101735.38;;;25.61;29.34
74637;BME280;63141;54.616;39.754;2022-10-16T17:04:57;101732.56;;;25.66;29.50
74637;BME280;63141;54.616;39.754;2022-10-16T17:07:58;101725.38;;;25.68;29.61
74637;BME280;63141;54.616;39.754;2022-10-16T17:11:00;101725.25;;;25.73;29.64
74637;BME280;63141;54.616;39.754;2022-10-16T17:14:02;101731.53;;;25.70;29.98
74637;BME280;63141;54.616;39.754;2022-10-16T17:17:03;101723.59;;;25.68;29.99
74637;BME280;63141;54.616;39.754;2022-10-16T17:20:08;101713.78;;;25.69;29.69